createdAt,value
2023-04-17T00:01:16.023Z,67.51
2023-04-17T00:03:45.049Z,67.66
2023-04-17T00:06:14.272Z,67.57
2023-04-17T00:08:43.693Z,67.79
2023-04-17T00:11:11.913Z,67.58
2023-04-17T00:13:44.186Z,67.62
2023-04-17T00:16:13.851Z,67.62
2023-04-17T00:18:43.091Z,67.65
2023-04-17T00:21:11.127Z,67.69
2023-04-17T00:23:39.680Z,67.58
2023-04-17T00:26:07.819Z,67.59
2023-04-17T00:28:36.840Z,67.46
2023-04-17T00:31:05.507Z,67.64
2023-04-17T00:33:33.763Z,67.64
2023-04-17T00:36:01.763Z,67.72
2023-04-17T00:38:30.034Z,67.87
2023-04-17T00:40:58.165Z,67.98
2023-04-17T00:43:26.217Z,67.73
2023-04-17T00:45:54.322Z,67.72
2023-04-17T00:48:24.304Z,67.87
2023-04-17T00:50:52.515Z,67.78
2023-04-17T00:53:20.572Z,67.72
2023-04-17T00:55:48.727Z,67.94
2023-04-17T00:58:16.867Z,67.96
2023-04-17T01:00:45.160Z,67.86
2023-04-17T01:03:13.457Z,67.91
2023-04-17T01:05:42.220Z,67.95
2023-04-17T01:08:10.888Z,67.84
2023-04-17T01:10:38.807Z,67.94
2023-04-17T01:13:07.660Z,68.03
2023-04-17T01:15:36.108Z,67.94
2023-04-17T01:18:04.394Z,68.11
2023-04-17T01:20:33.096Z,68.13
2023-04-17T01:23:01.226Z,68.27
2023-04-17T01:25:30.274Z,68.45
2023-04-17T01:27:58.410Z,68.47
2023-04-17T01:30:28.099Z,68.40
2023-04-17T01:33:01.178Z,68.19
2023-04-17T01:35:30.159Z,68.49
2023-04-17T01:37:58.991Z,68.57
2023-04-17T01:40:27.199Z,68.28
2023-04-17T01:42:55.320Z,68.21
2023-04-17T01:45:23.345Z,68.26
2023-04-17T01:47:51.900Z,68.16
2023-04-17T01:50:20.121Z,68.14
2023-04-17T01:52:48.586Z,68.03
2023-04-17T01:55:16.664Z,68.18
2023-04-17T01:57:44.728Z,68.27
2023-04-17T02:00:13.486Z,68.25
2023-04-17T02:02:44.365Z,68.27
2023-04-17T02:05:12.639Z,68.23
2023-04-17T02:07:41.013Z,68.00
2023-04-17T02:10:09.814Z,68.19
2023-04-17T02:12:38.287Z,67.91
2023-04-17T02:15:07.413Z,68.04
2023-04-17T02:17:35.699Z,67.76
2023-04-17T02:20:07.061Z,67.80
2023-04-17T02:22:35.087Z,67.68
2023-04-17T02:25:03.364Z,67.52
2023-04-17T02:34:43.213Z,67.37
2023-04-17T02:37:10.556Z,67.26
2023-04-17T02:39:37.472Z,67.45
2023-04-17T02:42:04.411Z,67.36
2023-04-17T02:44:31.552Z,67.44
2023-04-17T02:46:58.348Z,67.46
2023-04-17T02:57:08.951Z,66.88
2023-04-17T02:59:37.380Z,66.65
2023-04-17T03:02:05.681Z,66.67
2023-04-17T03:04:38.926Z,66.68
2023-04-17T03:07:07.141Z,66.71
2023-04-17T03:09:35.567Z,66.55
2023-04-17T03:12:06.048Z,66.37
2023-04-17T03:14:34.090Z,66.26
2023-04-17T03:17:02.112Z,66.14
2023-04-17T03:19:30.765Z,65.96
2023-04-17T03:21:58.959Z,65.88
2023-04-17T03:24:27.441Z,65.66
2023-04-17T03:26:56.304Z,65.81
2023-04-17T03:29:24.462Z,65.62
2023-04-17T03:31:52.906Z,65.67
2023-04-17T03:34:21.877Z,65.79
2023-04-17T03:36:50.674Z,65.75
2023-04-17T03:39:18.708Z,65.58
2023-04-17T03:41:47.162Z,65.65
2023-04-17T03:44:15.594Z,65.62
2023-04-17T03:46:43.488Z,65.55
2023-04-17T03:49:11.983Z,65.55
2023-04-17T03:51:42.766Z,65.43
2023-04-17T03:54:17.622Z,65.30
2023-04-17T03:56:47.170Z,65.32
2023-04-17T03:59:15.395Z,65.29
2023-04-17T04:01:46.570Z,65.14
2023-04-17T04:04:19.070Z,65.09
2023-04-17T04:06:49.546Z,65.16
2023-04-17T04:09:20.381Z,65.23
2023-04-17T04:11:48.511Z,65.37
2023-04-17T04:14:16.871Z,65.31
2023-04-17T04:16:47.002Z,65.26
2023-04-17T04:19:16.367Z,65.20
2023-04-17T04:21:45.333Z,65.27
2023-04-17T04:24:14.497Z,65.11
2023-04-17T04:26:43.543Z,64.96
2023-04-17T04:29:13.944Z,64.91
2023-04-17T04:31:53.798Z,64.46
2023-04-17T04:34:26.003Z,64.28
2023-04-17T04:36:57.019Z,64.35
2023-04-17T04:39:39.344Z,63.99
2023-04-17T04:42:10.119Z,63.85
2023-04-17T04:44:56.981Z,63.70
2023-04-17T04:47:26.955Z,63.56
2023-04-17T04:49:55.706Z,63.00
2023-04-17T04:52:24.077Z,62.65
2023-04-17T04:54:54.328Z,62.14
2023-04-17T04:57:22.579Z,61.68
2023-04-17T04:59:51.262Z,61.49
2023-04-17T05:02:33.304Z,61.24
2023-04-17T05:05:02.144Z,60.99
2023-04-17T05:07:32.381Z,60.70
2023-04-17T05:10:01.108Z,60.58
2023-04-17T05:12:33.270Z,60.45
2023-04-17T05:15:01.470Z,60.40
2023-04-17T05:17:30.157Z,60.20
2023-04-17T05:19:58.323Z,60.13
2023-04-17T05:22:27.753Z,59.63
2023-04-17T05:25:08.740Z,59.32
2023-04-17T05:27:36.868Z,58.88
2023-04-17T05:30:05.729Z,58.92
2023-04-17T05:32:35.174Z,58.86
2023-04-17T05:35:28.999Z,58.93
2023-04-17T05:37:57.531Z,58.56
2023-04-17T05:40:25.881Z,58.36
2023-04-17T05:42:54.016Z,58.18
2023-04-17T05:45:24.198Z,58.27
2023-04-17T05:47:53.733Z,58.23
2023-04-17T05:50:22.006Z,58.17
2023-04-17T05:52:50.869Z,57.40
2023-04-17T05:55:20.479Z,57.34
2023-04-17T05:57:49.739Z,57.49
2023-04-17T06:00:18.825Z,57.25
2023-04-17T06:02:49.962Z,56.76
2023-04-17T06:05:26.381Z,55.88
2023-04-17T06:07:54.527Z,55.57
2023-04-17T06:10:23.095Z,54.39
2023-04-17T06:12:51.476Z,54.58
2023-04-17T06:15:19.908Z,54.24
2023-04-17T06:17:48.078Z,53.63
2023-04-17T06:20:16.417Z,53.30
2023-04-17T06:22:46.851Z,53.03
2023-04-17T06:25:14.959Z,52.35
2023-04-17T06:27:43.506Z,51.99
2023-04-17T06:30:12.286Z,51.76
2023-04-17T06:32:49.092Z,51.61
2023-04-17T06:35:17.655Z,51.74
2023-04-17T06:37:49.351Z,51.53
2023-04-17T06:40:17.640Z,51.24
2023-04-17T06:42:45.783Z,50.16
2023-04-17T06:45:19.107Z,50.41
2023-04-17T06:47:47.309Z,50.43
2023-04-17T06:50:18.577Z,47.93
2023-04-17T06:52:46.748Z,47.93
2023-04-17T06:55:15.054Z,47.67
2023-04-17T06:57:43.001Z,47.81
2023-04-17T07:00:12.283Z,46.82
2023-04-17T07:02:40.982Z,46.50
2023-04-17T07:05:09.470Z,47.08
2023-04-17T07:07:37.791Z,47.36
2023-04-17T07:10:06.958Z,46.99
2023-04-17T07:12:35.302Z,46.73
2023-04-17T07:15:03.494Z,46.51
2023-04-17T07:17:32.006Z,46.44
2023-04-17T07:20:00.005Z,45.79
2023-04-17T07:22:28.962Z,45.65
2023-04-17T07:24:57.230Z,45.07
2023-04-17T07:27:25.621Z,44.38
2023-04-17T07:29:55.315Z,44.68
2023-04-17T07:32:26.249Z,44.73
2023-04-17T07:34:54.249Z,44.11
2023-04-17T07:37:22.291Z,43.32
2023-04-17T07:39:50.605Z,43.27
2023-04-17T07:42:18.656Z,42.70
2023-04-17T07:44:47.497Z,42.29
2023-04-17T07:47:15.616Z,42.29
2023-04-17T07:49:49.045Z,41.93
2023-04-17T07:52:18.312Z,40.89
2023-04-17T07:54:46.540Z,40.80
2023-04-17T07:57:15.483Z,40.87
2023-04-17T07:59:44.128Z,41.23
2023-04-17T08:02:12.404Z,40.95
2023-04-17T08:04:41.983Z,40.11
2023-04-17T08:07:11.397Z,40.10
2023-04-17T08:09:40.583Z,40.19
2023-04-17T08:12:09.934Z,39.76
2023-04-17T08:14:38.871Z,39.66
2023-04-17T08:17:07.826Z,38.95
2023-04-17T08:19:36.157Z,38.36
2023-04-17T08:22:04.822Z,38.33
2023-04-17T08:24:33.174Z,38.73
2023-04-17T08:27:01.641Z,39.06
2023-04-17T08:29:29.749Z,39.25
2023-04-17T08:32:10.863Z,38.98
2023-04-17T08:34:42.559Z,38.81
2023-04-17T08:37:10.851Z,38.86
2023-04-17T08:39:38.982Z,38.88
2023-04-17T08:42:08.044Z,38.78
2023-04-17T08:44:36.400Z,37.97
2023-04-17T08:47:05.658Z,36.53
2023-04-17T08:49:35.036Z,36.79
2023-04-17T08:52:08.265Z,36.70
2023-04-17T08:54:37.968Z,35.83
2023-04-17T08:57:06.323Z,35.10
2023-04-17T08:59:34.350Z,34.30
2023-04-17T09:02:07.498Z,34.35
2023-04-17T09:04:42.574Z,33.77
2023-04-17T09:07:12.187Z,33.64
2023-04-17T09:09:56.229Z,33.74
2023-04-17T09:12:25.414Z,33.36
2023-04-17T09:14:54.069Z,32.84
2023-04-17T09:17:22.248Z,31.83
2023-04-17T09:20:15.020Z,31.57
2023-04-17T09:22:43.364Z,31.00
2023-04-17T09:25:21.110Z,31.20
2023-04-17T09:27:49.314Z,30.37
2023-04-17T09:30:17.505Z,30.04
2023-04-17T09:32:45.710Z,29.82
2023-04-17T09:35:23.813Z,29.21
2023-04-17T09:37:52.965Z,29.16
2023-04-17T09:40:23.243Z,29.01
2023-04-17T09:42:56.169Z,28.20
2023-04-17T09:45:25.294Z,28.11
2023-04-17T09:47:56.140Z,27.30
2023-04-17T09:50:27.255Z,28.08
2023-04-17T09:52:56.222Z,28.44
2023-04-17T09:55:25.217Z,29.24
2023-04-17T09:57:54.272Z,29.35
2023-04-17T10:00:23.853Z,29.70
2023-04-17T10:02:52.380Z,29.96
2023-04-17T10:05:21.933Z,30.26
2023-04-17T10:07:50.175Z,30.57
2023-04-17T10:10:33.875Z,30.64
2023-04-17T10:13:03.393Z,31.20
2023-04-17T10:15:31.454Z,31.57
2023-04-17T10:18:23.853Z,32.25
2023-04-17T10:20:53.787Z,32.82
2023-04-17T10:23:31.692Z,33.08
2023-04-17T10:26:24.677Z,33.67
2023-04-17T10:28:53.852Z,33.88
2023-04-17T10:31:23.860Z,34.02
2023-04-17T10:33:54.316Z,34.11
2023-04-17T10:36:40.974Z,34.27
2023-04-17T10:39:16.345Z,34.60
2023-04-17T10:42:03.514Z,34.78
2023-04-17T10:44:35.653Z,35.05
2023-04-17T10:47:16.280Z,35.08
2023-04-17T10:49:55.671Z,34.82
2023-04-17T10:52:33.420Z,35.18
2023-04-17T10:55:05.750Z,35.37
2023-04-17T10:57:59.390Z,35.39
2023-04-17T11:00:32.320Z,35.45
2023-04-17T11:03:01.381Z,35.31
2023-04-17T11:05:31.492Z,35.44
2023-04-17T11:07:59.601Z,35.59
2023-04-17T11:10:27.933Z,35.64
2023-04-17T11:12:56.947Z,35.30
2023-04-17T11:15:32.123Z,35.37
2023-04-17T11:18:00.413Z,35.46
2023-04-17T11:20:30.252Z,35.23
2023-04-17T11:23:02.901Z,35.07
2023-04-17T11:25:33.955Z,34.83
2023-04-17T11:28:04.955Z,35.21
2023-04-17T11:30:34.652Z,34.89
2023-04-17T11:33:04.261Z,34.50
2023-04-17T11:35:34.126Z,34.19
2023-04-17T11:38:28.677Z,33.98
2023-04-17T11:41:00.456Z,33.26
2023-04-17T11:43:29.584Z,33.17
2023-04-17T11:45:59.262Z,32.89
2023-04-17T11:48:28.498Z,32.76
2023-04-17T11:51:04.120Z,32.87
2023-04-17T11:53:34.539Z,33.04
2023-04-17T11:56:22.337Z,33.29
2023-04-17T11:58:54.709Z,32.58
2023-04-17T12:01:25.008Z,32.98
2023-04-17T12:03:57.210Z,32.83
2023-04-17T12:06:37.914Z,32.10
2023-04-17T12:09:07.444Z,31.25
2023-04-17T12:11:36.090Z,31.34
2023-04-17T12:14:11.863Z,30.79
2023-04-17T12:16:40.216Z,30.34
2023-04-17T12:19:08.847Z,30.52
2023-04-17T12:21:37.274Z,30.60
2023-04-17T12:24:05.942Z,29.94
2023-04-17T12:26:34.070Z,29.46
2023-04-17T12:29:02.239Z,28.89
2023-04-17T12:31:31.018Z,29.34
2023-04-17T12:33:58.933Z,29.28
2023-04-17T12:36:27.056Z,28.64
2023-04-17T12:38:55.426Z,28.57
2023-04-17T12:41:26.676Z,28.71
2023-04-17T12:43:54.779Z,28.82
2023-04-17T12:46:23.077Z,28.91
2023-04-17T12:48:58.363Z,28.11
2023-04-17T12:51:30.719Z,27.94
2023-04-17T12:53:58.769Z,27.67
2023-04-17T12:56:26.787Z,27.27
2023-04-17T12:58:54.800Z,27.16
2023-04-17T13:01:22.980Z,26.87
2023-04-17T13:03:51.233Z,27.11
2023-04-17T13:06:21.599Z,27.62
2023-04-17T13:08:49.980Z,28.01
2023-04-17T13:11:17.969Z,27.89
2023-04-17T13:13:46.229Z,28.16
2023-04-17T13:16:14.362Z,27.95
2023-04-17T13:18:42.626Z,27.78
2023-04-17T13:21:10.781Z,27.24
2023-04-17T13:23:38.854Z,26.84
2023-04-17T13:26:06.851Z,26.82
2023-04-17T13:28:34.863Z,26.48
2023-04-17T13:31:03.332Z,26.12
2023-04-17T13:33:31.754Z,26.14
2023-04-17T13:35:59.740Z,25.89
2023-04-17T13:38:27.891Z,26.22
2023-04-17T13:40:56.046Z,25.95
2023-04-17T13:43:24.455Z,25.82
2023-04-17T13:45:55.408Z,26.09
2023-04-17T13:48:23.912Z,26.07
2023-04-17T13:50:52.131Z,25.95
2023-04-17T13:53:20.399Z,25.83
2023-04-17T13:55:49.468Z,25.33
2023-04-17T13:58:17.705Z,25.71
2023-04-17T14:00:46.720Z,26.03
2023-04-17T14:03:14.982Z,26.01
2023-04-17T14:05:43.211Z,26.24
2023-04-17T14:08:11.550Z,26.76
2023-04-17T14:10:39.585Z,26.97
2023-04-17T14:13:07.717Z,27.43
2023-04-17T14:15:36.571Z,27.75
2023-04-17T14:18:05.145Z,28.14
2023-04-17T14:20:33.561Z,28.13
2023-04-17T14:23:01.805Z,28.08
2023-04-17T14:25:29.915Z,28.02
2023-04-17T14:27:57.952Z,28.16
2023-04-17T14:30:26.204Z,28.38
2023-04-17T14:32:54.583Z,28.35
2023-04-17T14:35:23.583Z,28.35
2023-04-17T14:37:51.553Z,28.42
2023-04-17T14:40:19.556Z,28.29
2023-04-17T14:42:54.034Z,28.32
2023-04-17T14:45:22.901Z,28.23
2023-04-17T14:47:51.212Z,27.86
2023-04-17T14:50:19.698Z,27.94
2023-04-17T14:52:47.904Z,27.92
2023-04-17T14:55:16.042Z,27.99
2023-04-17T14:57:44.276Z,28.09
2023-04-17T15:00:13.030Z,28.05
2023-04-17T15:02:41.472Z,27.99
2023-04-17T15:05:10.075Z,28.19
2023-04-17T15:07:38.961Z,28.47
2023-04-17T15:10:07.569Z,28.36
2023-04-17T15:12:35.958Z,28.70
2023-04-17T15:15:05.140Z,29.00
2023-04-17T15:17:33.906Z,28.93
2023-04-17T15:20:01.998Z,29.23
2023-04-17T15:22:30.412Z,29.34
2023-04-17T15:24:58.678Z,29.66
2023-04-17T15:27:26.733Z,30.03
2023-04-17T15:29:54.845Z,30.31
2023-04-17T15:32:23.157Z,30.63
2023-04-17T15:34:51.426Z,31.10
2023-04-17T15:37:19.462Z,31.39
2023-04-17T15:39:47.784Z,31.75
2023-04-17T15:42:16.153Z,31.98
2023-04-17T15:44:44.169Z,32.10
2023-04-17T15:47:12.093Z,32.00
2023-04-17T15:49:40.432Z,32.07
2023-04-17T15:52:08.770Z,31.95
2023-04-17T15:54:37.854Z,31.90
2023-04-17T16:04:43.972Z,32.37
2023-04-17T16:07:12.377Z,32.54
2023-04-17T16:09:41.876Z,32.54
2023-04-17T16:12:10.356Z,32.59
2023-04-17T16:14:38.641Z,32.59
2023-04-17T16:17:07.246Z,32.59
2023-04-17T16:19:35.625Z,32.86
2023-04-17T16:22:03.996Z,32.68
2023-04-17T16:24:32.209Z,32.82
2023-04-17T16:27:01.243Z,32.77
2023-04-17T16:29:29.537Z,33.10
2023-04-17T16:31:58.275Z,33.18
2023-04-17T16:34:26.539Z,33.31
2023-04-17T16:36:54.476Z,33.39
2023-04-17T16:39:22.631Z,33.52
2023-04-17T16:41:52.927Z,33.60
2023-04-17T16:44:21.331Z,33.68
2023-04-17T16:47:09.349Z,33.88
2023-04-17T16:49:38.329Z,34.03
2023-04-17T16:52:06.454Z,34.13
2023-04-17T16:54:34.920Z,34.32
2023-04-17T16:57:06.152Z,34.48
2023-04-17T16:59:34.469Z,34.68
2023-04-17T17:02:02.904Z,34.77
2023-04-17T17:04:31.476Z,34.87
2023-04-17T17:06:59.588Z,34.88
2023-04-17T17:09:27.912Z,35.10
2023-04-17T17:11:56.977Z,35.16
2023-04-17T17:14:24.994Z,35.27
2023-04-17T17:16:53.728Z,35.43
2023-04-17T17:19:22.111Z,35.61
2023-04-17T17:21:50.678Z,35.73
2023-04-17T17:24:18.719Z,35.77
2023-04-17T17:26:46.886Z,35.84
2023-04-17T17:29:15.424Z,35.91
2023-04-17T17:31:43.838Z,36.02
2023-04-17T17:36:43.759Z,36.18
2023-04-17T17:39:12.143Z,36.19
2023-04-17T17:41:40.813Z,36.29
2023-04-17T17:44:08.960Z,36.30
2023-04-17T17:46:37.576Z,36.37
2023-04-17T17:49:05.945Z,36.48
2023-04-17T17:51:34.127Z,36.56
2023-04-17T17:54:02.329Z,36.54
2023-04-17T17:56:30.724Z,36.57
2023-04-17T17:58:59.163Z,36.63
2023-04-17T18:01:27.319Z,36.61
2023-04-17T18:03:55.960Z,36.73
2023-04-17T18:06:25.274Z,36.88
2023-04-17T18:08:54.200Z,36.91
2023-04-17T18:11:23.039Z,36.96
2023-04-17T18:13:51.327Z,37.15
2023-04-17T18:16:19.839Z,37.19
2023-04-17T18:18:48.006Z,37.24
2023-04-17T18:21:16.176Z,37.39
2023-04-17T18:23:44.485Z,37.50
2023-04-17T18:26:13.175Z,37.61
2023-04-17T18:28:42.741Z,37.72
2023-04-17T18:31:11.219Z,37.74
2023-04-17T18:33:39.444Z,37.76
2023-04-17T18:36:08.808Z,38.01
2023-04-17T18:38:37.291Z,38.04
2023-04-17T18:41:05.989Z,38.09
2023-04-17T18:43:34.643Z,38.21
2023-04-17T18:46:04.940Z,38.16
2023-04-17T18:48:34.277Z,38.16
2023-04-17T18:51:12.774Z,38.18
2023-04-17T18:53:40.906Z,38.35
2023-04-17T18:56:10.904Z,38.20
2023-04-17T18:58:40.535Z,38.21
2023-04-17T19:01:10.731Z,38.33
2023-04-17T19:03:39.621Z,38.21
2023-04-17T19:06:07.757Z,38.26
2023-04-17T19:08:36.409Z,38.23
2023-04-17T19:11:04.419Z,38.22
2023-04-17T19:13:32.766Z,38.30
2023-04-17T19:16:01.056Z,38.16
2023-04-17T19:18:29.932Z,38.23
2023-04-17T19:20:58.086Z,38.21
2023-04-17T19:23:26.621Z,38.26
2023-04-17T19:25:55.208Z,38.18
2023-04-17T19:28:23.548Z,38.23
2023-04-17T19:30:51.742Z,38.22
2023-04-17T19:33:20.370Z,38.22
2023-04-17T19:35:52.533Z,38.23
2023-04-17T19:38:21.576Z,38.23
2023-04-17T19:41:17.486Z,38.16
2023-04-17T19:43:52.668Z,38.15
2023-04-17T19:46:21.771Z,38.08
2023-04-17T19:48:51.010Z,38.13
2023-04-17T19:51:19.336Z,38.07
2023-04-17T19:53:48.215Z,38.02
2023-04-17T19:56:16.504Z,38.03
2023-04-17T19:58:44.730Z,38.09
2023-04-17T20:01:12.981Z,38.24
2023-04-17T20:03:42.390Z,38.18
2023-04-17T20:06:10.792Z,38.20
2023-04-17T20:08:39.395Z,38.27
2023-04-17T20:11:12.204Z,38.36
2023-04-17T20:13:40.443Z,38.33
2023-04-17T20:16:08.542Z,38.51
2023-04-17T20:18:37.990Z,38.45
2023-04-17T20:21:06.587Z,38.46
2023-04-17T20:23:34.972Z,38.55
2023-04-17T20:26:03.514Z,38.54
2023-04-17T20:28:31.808Z,38.70
2023-04-17T20:30:59.973Z,38.62
2023-04-17T20:33:28.083Z,38.60
2023-04-17T20:35:56.411Z,38.78
2023-04-17T20:38:24.742Z,38.75
2023-04-17T20:40:52.794Z,38.65
2023-04-17T20:43:21.095Z,38.71
2023-04-17T20:45:49.765Z,38.73
2023-04-17T20:48:18.762Z,38.71
2023-04-17T20:50:46.874Z,38.79
2023-04-17T20:53:14.959Z,38.64
2023-04-17T20:55:43.069Z,38.58
2023-04-17T20:58:11.027Z,38.74
2023-04-17T21:00:44.855Z,38.72
2023-04-17T21:03:22.250Z,38.60
2023-04-17T21:05:50.263Z,38.76
2023-04-17T21:08:18.368Z,38.81
2023-04-17T21:10:46.375Z,38.96
2023-04-17T21:13:14.272Z,38.75
2023-04-17T21:15:42.334Z,38.81
2023-04-17T21:18:10.365Z,38.77
2023-04-17T21:20:38.956Z,38.96
2023-04-17T21:23:06.892Z,38.94
2023-04-17T21:25:35.849Z,38.88
2023-04-17T21:28:03.820Z,39.09
2023-04-17T21:30:32.074Z,39.12
2023-04-17T21:33:00.120Z,39.21
2023-04-17T21:35:28.197Z,39.07
2023-04-17T21:37:56.457Z,39.21
2023-04-17T21:40:26.143Z,39.32
2023-04-17T21:42:54.255Z,39.55
2023-04-17T21:45:22.199Z,39.41
2023-04-17T21:47:50.186Z,39.62
2023-04-17T21:50:18.315Z,39.93
2023-04-17T21:52:46.218Z,39.77
2023-04-17T21:55:14.128Z,39.82
2023-04-17T21:57:42.165Z,40.28
2023-04-17T22:00:14.520Z,40.20
2023-04-17T22:02:42.697Z,40.23
2023-04-17T22:05:11.628Z,40.34
2023-04-17T22:07:53.687Z,40.42
2023-04-17T22:10:23.835Z,40.50
2023-04-17T22:12:51.790Z,40.64
2023-04-17T22:15:19.703Z,40.80
2023-04-17T22:17:47.627Z,40.85
2023-04-17T22:20:15.792Z,40.79
2023-04-17T22:22:43.861Z,40.97
2023-04-17T22:25:11.795Z,40.96
2023-04-17T22:27:40.309Z,41.16
2023-04-17T22:30:08.473Z,41.18
2023-04-17T22:32:37.446Z,41.26
2023-04-17T22:35:06.590Z,41.29
2023-04-17T22:37:34.510Z,41.18
2023-04-17T22:40:02.571Z,41.26
2023-04-17T22:42:30.873Z,41.49
2023-04-17T22:44:58.786Z,41.41
2023-04-17T22:47:26.738Z,41.35
2023-04-17T22:49:55.157Z,41.38
2023-04-17T22:52:23.074Z,41.48
2023-04-17T22:54:51.001Z,41.41
2023-04-17T22:57:18.994Z,41.37
2023-04-17T22:59:46.942Z,41.39
2023-04-17T23:02:14.908Z,41.41
2023-04-17T23:04:42.871Z,41.45
2023-04-17T23:07:10.811Z,41.45
2023-04-17T23:09:39.149Z,41.44
2023-04-17T23:12:07.299Z,41.32
2023-04-17T23:14:35.491Z,41.42
2023-04-17T23:17:03.506Z,41.27
2023-04-17T23:19:31.841Z,41.35
2023-04-17T23:22:01.132Z,41.26
2023-04-17T23:24:32.230Z,41.30
2023-04-17T23:27:01.536Z,41.01
2023-04-17T23:29:29.436Z,41.08
2023-04-17T23:31:57.346Z,41.12
2023-04-17T23:34:26.068Z,41.03
2023-04-17T23:36:53.975Z,41.03
2023-04-17T23:39:22.340Z,41.08
2023-04-17T23:41:50.716Z,40.91
2023-04-17T23:44:18.856Z,40.87
2023-04-17T23:46:46.899Z,40.87
2023-04-17T23:49:14.778Z,40.94
2023-04-17T23:51:42.647Z,40.82
2023-04-17T23:54:10.569Z,40.54
2023-04-17T23:56:38.627Z,40.67
2023-04-17T23:59:06.908Z,40.67
